createdAt,value
2023-04-02T00:00:06.400Z,9.59
2023-04-02T00:02:47.051Z,9.57
2023-04-02T00:05:31.765Z,9.49
2023-04-02T00:08:00.215Z,9.44
2023-04-02T00:10:33.085Z,9.56
2023-04-02T00:13:01.124Z,9.39
2023-04-02T00:15:28.342Z,9.44
2023-04-02T00:17:55.288Z,9.40
2023-04-02T00:20:22.592Z,9.33
2023-04-02T00:22:49.698Z,9.22
2023-04-02T00:25:16.448Z,9.22
2023-04-02T00:27:43.400Z,9.06
2023-04-02T00:30:13.175Z,8.85
2023-04-02T00:32:40.137Z,8.74
2023-04-02T00:35:18.156Z,8.65
2023-04-02T00:37:45.030Z,8.55
2023-04-02T00:40:19.482Z,8.74
2023-04-02T00:42:47.554Z,8.80
2023-04-02T00:45:20.590Z,8.73
2023-04-02T00:47:47.377Z,8.79
2023-04-02T00:50:14.760Z,8.73
2023-04-02T00:52:43.226Z,8.71
2023-04-02T00:55:27.758Z,8.50
2023-04-02T00:57:55.984Z,8.44
2023-04-02T01:00:27.725Z,8.39
2023-04-02T01:03:30.397Z,8.32
2023-04-02T01:06:03.046Z,8.28
2023-04-02T01:08:52.730Z,8.18
2023-04-02T01:11:31.617Z,8.12
2023-04-02T01:13:58.370Z,8.07
2023-04-02T01:16:31.431Z,8.04
2023-04-02T01:19:04.782Z,8.03
2023-04-02T01:21:53.050Z,7.94
2023-04-02T01:24:20.885Z,7.90
2023-04-02T01:26:48.131Z,7.94
2023-04-02T01:29:22.329Z,7.99
2023-04-02T01:31:50.557Z,7.87
2023-04-02T01:34:19.100Z,7.86
2023-04-02T01:36:46.295Z,7.83
2023-04-02T01:39:31.580Z,7.79
2023-04-02T01:41:58.341Z,7.79
2023-04-02T01:44:32.530Z,7.80
2023-04-02T01:47:04.128Z,7.72
2023-04-02T01:49:31.168Z,7.70
2023-04-02T01:51:57.975Z,7.66
2023-04-02T01:54:29.118Z,7.71
2023-04-02T01:56:57.780Z,7.93
2023-04-02T01:59:26.566Z,8.05
2023-04-02T02:02:06.313Z,7.94
2023-04-02T02:04:36.687Z,7.96
2023-04-02T02:07:06.303Z,7.94
2023-04-02T02:09:35.824Z,7.95
2023-04-02T02:12:03.701Z,8.21
2023-04-02T02:14:31.324Z,8.26
2023-04-02T02:17:02.240Z,8.22
2023-04-02T02:19:33.057Z,8.19
2023-04-02T02:22:10.487Z,8.20
2023-04-02T02:24:37.826Z,8.37
2023-04-02T02:27:12.049Z,8.42
2023-04-02T02:29:41.295Z,8.35
2023-04-02T02:32:09.880Z,8.44
2023-04-02T02:34:39.943Z,8.37
2023-04-02T02:37:12.827Z,8.34
2023-04-02T02:39:42.683Z,8.35
2023-04-02T02:42:09.492Z,8.37
2023-04-02T02:44:38.329Z,8.37
2023-04-02T02:47:26.058Z,8.34
2023-04-02T02:49:55.332Z,8.37
2023-04-02T02:52:27.368Z,8.46
2023-04-02T02:55:11.223Z,8.46
2023-04-02T02:57:48.623Z,8.47
2023-04-02T03:00:18.019Z,8.39
2023-04-02T03:02:45.377Z,8.38
2023-04-02T03:05:19.470Z,8.38
2023-04-02T03:07:51.888Z,8.44
2023-04-02T03:10:41.893Z,8.44
2023-04-02T03:13:20.078Z,8.47
2023-04-02T03:16:05.788Z,8.50
2023-04-02T03:18:36.403Z,8.47
2023-04-02T03:21:22.270Z,8.46
2023-04-02T03:23:53.467Z,8.43
2023-04-02T03:26:43.509Z,8.46
2023-04-02T03:29:19.266Z,8.56
2023-04-02T03:31:54.476Z,8.42
2023-04-02T03:34:25.854Z,8.35
2023-04-02T03:36:58.076Z,8.40
2023-04-02T03:39:37.618Z,8.47
2023-04-02T03:42:16.867Z,8.55
2023-04-02T03:44:47.215Z,8.71
2023-04-02T03:47:19.267Z,8.68
2023-04-02T03:49:50.065Z,8.60
2023-04-02T03:52:26.234Z,8.66
2023-04-02T03:54:54.857Z,8.70
2023-04-02T03:57:33.163Z,8.58
2023-04-02T04:00:05.376Z,8.55
2023-04-02T04:02:44.348Z,8.59
2023-04-02T04:05:23.509Z,8.61
2023-04-02T04:07:55.242Z,8.67
2023-04-02T04:10:24.995Z,8.77
2023-04-02T04:12:53.332Z,8.88
2023-04-02T04:15:40.840Z,8.89
2023-04-02T04:18:35.050Z,8.87
2023-04-02T04:21:16.632Z,8.84
2023-04-02T04:23:50.609Z,8.89
2023-04-02T04:26:35.207Z,8.85
2023-04-02T04:29:20.717Z,8.82
2023-04-02T04:31:55.934Z,8.70
2023-04-02T04:34:31.612Z,8.52
2023-04-02T04:37:08.001Z,8.48
2023-04-02T04:39:47.801Z,8.41
2023-04-02T04:42:20.851Z,8.55
2023-04-02T04:44:56.192Z,8.69
2023-04-02T04:47:31.286Z,8.77
2023-04-02T04:50:05.418Z,8.72
2023-04-02T04:52:38.584Z,8.61
2023-04-02T04:55:24.816Z,8.83
2023-04-02T04:57:55.930Z,8.68
2023-04-02T05:00:27.640Z,8.46
2023-04-02T05:03:02.166Z,8.52
2023-04-02T05:05:31.419Z,8.19
2023-04-02T05:08:09.993Z,8.12
2023-04-02T05:10:41.378Z,8.07
2023-04-02T05:13:24.310Z,8.01
2023-04-02T05:16:09.769Z,7.96
2023-04-02T05:19:00.167Z,7.96
2023-04-02T05:21:36.412Z,8.16
2023-04-02T05:24:27.516Z,8.34
2023-04-02T05:26:58.498Z,8.38
2023-04-02T05:29:28.899Z,8.63
2023-04-02T05:32:15.885Z,8.77
2023-04-02T05:34:46.256Z,8.87
2023-04-02T05:37:31.776Z,9.05
2023-04-02T05:40:06.513Z,9.22
2023-04-02T05:42:37.382Z,9.19
2023-04-02T05:45:31.725Z,9.42
2023-04-02T05:48:03.168Z,9.51
2023-04-02T05:50:55.946Z,9.70
2023-04-02T05:53:34.491Z,9.81
2023-04-02T05:56:05.215Z,9.96
2023-04-02T05:58:45.352Z,10.00
2023-04-02T06:01:21.922Z,10.08
2023-04-02T06:03:50.879Z,10.33
2023-04-02T06:06:38.580Z,10.52
2023-04-02T06:09:10.180Z,10.52
2023-04-02T06:11:42.483Z,10.90
2023-04-02T06:14:15.004Z,11.17
2023-04-02T06:16:44.900Z,11.27
2023-04-02T06:19:31.998Z,11.30
2023-04-02T06:22:00.828Z,11.21
2023-04-02T06:24:29.367Z,11.11
2023-04-02T06:27:00.990Z,10.98
2023-04-02T06:29:39.763Z,10.80
2023-04-02T06:32:11.476Z,10.86
2023-04-02T06:34:42.468Z,10.98
2023-04-02T06:37:20.143Z,10.84
2023-04-02T06:39:48.360Z,10.86
2023-04-02T06:42:19.681Z,10.79
2023-04-02T06:44:59.019Z,10.94
2023-04-02T06:47:47.470Z,10.89
2023-04-02T06:50:36.200Z,10.94
2023-04-02T06:53:09.862Z,10.85
2023-04-02T06:55:49.480Z,10.87
2023-04-02T06:58:21.443Z,11.04
2023-04-02T07:00:50.944Z,10.98
2023-04-02T07:03:30.582Z,11.44
2023-04-02T07:06:03.065Z,11.35
2023-04-02T07:08:31.309Z,10.90
2023-04-02T07:10:58.700Z,11.09
2023-04-02T07:13:26.516Z,11.42
2023-04-02T07:15:54.641Z,11.62
2023-04-02T07:18:23.689Z,12.06
2023-04-02T07:20:52.062Z,11.75
2023-04-02T07:23:21.316Z,11.36
2023-04-02T07:25:48.826Z,11.46
2023-04-02T07:28:15.803Z,11.63
2023-04-02T07:30:43.006Z,11.89
2023-04-02T07:33:13.719Z,12.10
2023-04-02T07:35:41.031Z,11.49
2023-04-02T07:38:07.830Z,11.73
2023-04-02T07:40:34.795Z,11.70
2023-04-02T07:43:01.828Z,11.82
2023-04-02T07:45:28.830Z,12.32
2023-04-02T07:47:55.757Z,12.73
2023-04-02T07:50:23.038Z,12.65
2023-04-02T07:52:50.015Z,12.79
2023-04-02T07:55:16.907Z,13.02
2023-04-02T07:57:51.173Z,13.07
2023-04-02T08:00:18.542Z,13.09
2023-04-02T08:02:45.608Z,13.25
2023-04-02T08:05:12.478Z,13.57
2023-04-02T08:07:39.584Z,13.33
2023-04-02T08:10:07.666Z,13.70
2023-04-02T08:12:34.562Z,13.49
2023-04-02T08:15:01.539Z,13.79
2023-04-02T08:17:31.999Z,13.73
2023-04-02T08:20:01.343Z,13.67
2023-04-02T08:22:29.146Z,13.62
2023-04-02T08:24:56.651Z,13.61
2023-04-02T08:27:24.058Z,13.59
2023-04-02T08:29:51.426Z,14.09
2023-04-02T08:32:18.664Z,14.12
2023-04-02T08:34:45.782Z,13.87
2023-04-02T08:37:13.082Z,14.24
2023-04-02T08:39:40.151Z,14.33
2023-04-02T08:42:07.185Z,14.32
2023-04-02T08:44:45.752Z,14.65
2023-04-02T08:47:14.397Z,14.18
2023-04-02T08:49:49.253Z,14.31
2023-04-02T08:52:28.331Z,14.12
2023-04-02T08:54:56.490Z,14.10
2023-04-02T08:57:40.750Z,14.45
2023-04-02T09:00:13.412Z,14.81
2023-04-02T09:02:41.982Z,14.90
2023-04-02T09:05:16.329Z,14.91
2023-04-02T09:07:43.164Z,14.66
2023-04-02T09:10:32.559Z,14.84
2023-04-02T09:13:00.958Z,14.83
2023-04-02T09:15:34.603Z,14.68
2023-04-02T09:18:21.940Z,14.61
2023-04-02T09:20:50.148Z,14.48
2023-04-02T09:23:27.488Z,14.50
2023-04-02T09:26:03.692Z,14.46
2023-04-02T09:28:31.940Z,14.85
2023-04-02T09:31:07.398Z,14.64
2023-04-02T09:33:43.319Z,14.53
2023-04-02T09:36:18.443Z,14.46
2023-04-02T09:38:59.166Z,14.60
2023-04-02T09:41:27.502Z,14.93
2023-04-02T09:44:11.806Z,15.03
2023-04-02T09:46:47.078Z,15.20
2023-04-02T09:49:16.412Z,15.65
2023-04-02T09:51:43.211Z,15.70
2023-04-02T09:54:16.941Z,15.57
2023-04-02T09:57:01.361Z,15.61
2023-04-02T09:59:28.484Z,15.44
2023-04-02T10:01:55.204Z,15.53
2023-04-02T10:04:44.830Z,15.27
2023-04-02T10:07:30.450Z,15.28
2023-04-02T10:09:58.700Z,15.27
2023-04-02T10:12:27.098Z,15.22
2023-04-02T10:14:54.704Z,15.68
2023-04-02T10:17:32.966Z,15.89
2023-04-02T10:20:20.217Z,15.46
2023-04-02T10:22:47.176Z,15.48
2023-04-02T10:25:15.404Z,15.30
2023-04-02T10:27:47.100Z,15.32
2023-04-02T10:30:32.283Z,15.03
2023-04-02T10:33:15.019Z,15.02
2023-04-02T10:35:51.178Z,14.76
2023-04-02T10:38:44.420Z,15.06
2023-04-02T10:41:32.830Z,15.17
2023-04-02T10:46:43.525Z,15.19
2023-04-02T10:49:25.553Z,14.93
2023-04-02T10:51:52.555Z,15.39
2023-04-02T10:54:22.474Z,15.70
2023-04-02T10:56:53.466Z,15.74
2023-04-02T10:59:24.989Z,15.98
2023-04-02T11:01:52.672Z,16.14
2023-04-02T11:04:22.198Z,16.24
2023-04-02T11:07:03.518Z,16.31
2023-04-02T11:09:41.635Z,16.22
2023-04-02T11:12:13.776Z,16.52
2023-04-02T11:14:41.308Z,16.53
2023-04-02T11:17:13.532Z,17.12
2023-04-02T11:19:40.905Z,17.10
2023-04-02T11:22:13.860Z,17.16
2023-04-02T11:24:45.703Z,17.31
2023-04-02T11:27:12.644Z,17.73
2023-04-02T11:30:05.861Z,17.70
2023-04-02T11:32:37.752Z,17.08
2023-04-02T11:35:27.996Z,16.86
2023-04-02T11:37:56.445Z,17.24
2023-04-02T11:40:41.412Z,17.40
2023-04-02T11:43:27.110Z,17.45
2023-04-02T11:45:55.565Z,17.57
2023-04-02T11:48:22.615Z,17.62
2023-04-02T11:50:49.605Z,18.51
2023-04-02T11:53:21.399Z,18.05
2023-04-02T11:55:53.889Z,17.33
2023-04-02T11:58:36.492Z,17.46
2023-04-02T12:01:08.136Z,17.31
2023-04-02T12:03:35.137Z,17.56
2023-04-02T12:06:04.356Z,17.49
2023-04-02T12:08:57.129Z,17.88
2023-04-02T12:11:38.211Z,17.30
2023-04-02T12:14:23.311Z,17.65
2023-04-02T12:16:51.079Z,18.27
2023-04-02T12:19:18.320Z,18.46
2023-04-02T12:21:48.453Z,19.08
2023-04-02T12:24:20.980Z,18.67
2023-04-02T12:26:54.147Z,19.18
2023-04-02T12:29:26.781Z,19.35
2023-04-02T12:31:56.133Z,19.54
2023-04-02T12:34:27.288Z,18.75
2023-04-02T12:37:04.890Z,18.23
2023-04-02T12:39:33.181Z,17.99
2023-04-02T12:42:00.578Z,17.98
2023-04-02T12:44:28.763Z,17.97
2023-04-02T12:46:56.389Z,17.77
2023-04-02T12:49:25.895Z,17.40
2023-04-02T12:51:53.379Z,17.48
2023-04-02T12:54:21.399Z,17.69
2023-04-02T12:56:49.093Z,18.35
2023-04-02T12:59:24.755Z,18.70
2023-04-02T13:01:59.357Z,18.91
2023-04-02T13:04:26.724Z,18.86
2023-04-02T13:06:56.545Z,18.65
2023-04-02T13:09:30.122Z,18.83
2023-04-02T13:11:57.359Z,18.67
2023-04-02T13:14:24.721Z,17.35
2023-04-02T13:16:51.623Z,17.52
2023-04-02T13:19:44.617Z,17.08
2023-04-02T13:22:29.937Z,16.91
2023-04-02T13:24:56.982Z,16.82
2023-04-02T13:27:23.756Z,16.61
2023-04-02T13:29:50.979Z,16.27
2023-04-02T13:32:17.838Z,16.21
2023-04-02T13:34:44.799Z,16.05
2023-04-02T13:37:13.062Z,15.86
2023-04-02T13:39:39.994Z,15.85
2023-04-02T13:42:09.013Z,15.99
2023-04-02T13:44:39.313Z,15.75
2023-04-02T13:47:06.611Z,15.66
2023-04-02T13:49:33.414Z,15.61
2023-04-02T13:52:03.365Z,15.89
2023-04-02T13:54:42.400Z,15.73
2023-04-02T13:57:09.329Z,15.36
2023-04-02T13:59:36.487Z,15.65
2023-04-02T14:02:06.915Z,15.58
2023-04-02T14:04:36.325Z,15.66
2023-04-02T14:07:20.733Z,15.74
2023-04-02T14:09:59.146Z,15.57
2023-04-02T14:12:28.987Z,15.61
2023-04-02T14:15:02.073Z,15.64
2023-04-02T14:17:47.840Z,15.48
2023-04-02T14:20:33.039Z,15.64
2023-04-02T14:23:14.891Z,15.62
2023-04-02T14:25:44.548Z,15.76
2023-04-02T14:28:11.468Z,15.77
2023-04-02T14:31:11.630Z,15.95
2023-04-02T14:33:58.862Z,16.18
2023-04-02T14:36:44.269Z,16.23
2023-04-02T14:39:13.988Z,16.03
2023-04-02T14:42:07.141Z,16.31
2023-04-02T14:44:37.464Z,16.63
2023-04-02T14:47:33.351Z,16.75
2023-04-02T14:50:06.104Z,16.94
2023-04-02T14:52:33.987Z,17.10
2023-04-02T14:55:03.467Z,16.76
2023-04-02T14:57:31.877Z,16.93
2023-04-02T15:00:04.957Z,17.09
2023-04-02T15:02:41.516Z,17.33
2023-04-02T15:05:11.070Z,17.08
2023-04-02T15:07:41.813Z,16.92
2023-04-02T15:10:09.175Z,16.57
2023-04-02T15:12:37.444Z,16.63
2023-04-02T15:15:36.979Z,16.65
2023-04-02T15:18:06.318Z,16.72
2023-04-02T15:20:39.430Z,16.86
2023-04-02T15:23:20.892Z,16.60
2023-04-02T15:25:49.127Z,16.51
2023-04-02T15:28:17.090Z,16.42
2023-04-02T15:30:45.133Z,16.41
2023-04-02T15:33:32.745Z,16.55
2023-04-02T15:36:11.409Z,16.60
2023-04-02T15:38:43.071Z,16.72
2023-04-02T15:41:16.329Z,16.73
2023-04-02T15:43:57.555Z,16.88
2023-04-02T15:46:43.085Z,16.62
2023-04-02T15:49:25.766Z,16.35
2023-04-02T15:52:01.670Z,16.29
2023-04-02T15:54:46.493Z,16.29
2023-04-02T15:57:20.515Z,16.14
2023-04-02T15:59:57.325Z,15.97
2023-04-02T16:02:26.948Z,15.74
2023-04-02T16:04:53.832Z,15.63
2023-04-02T16:07:20.884Z,15.42
2023-04-02T16:10:03.234Z,15.43
2023-04-02T16:12:31.209Z,15.43
2023-04-02T16:15:06.172Z,15.38
2023-04-02T16:17:37.457Z,15.47
2023-04-02T16:20:24.991Z,15.50
2023-04-02T16:23:11.036Z,15.42
2023-04-02T16:26:04.035Z,15.37
2023-04-02T16:28:36.673Z,15.31
2023-04-02T16:31:26.554Z,15.23
2023-04-02T16:34:02.621Z,15.27
2023-04-02T16:36:35.861Z,15.15
2023-04-02T16:39:16.802Z,15.13
2023-04-02T16:41:46.741Z,15.17
2023-04-02T16:44:20.948Z,15.23
2023-04-02T16:46:56.979Z,15.25
2023-04-02T16:49:31.061Z,15.20
2023-04-02T16:52:08.242Z,15.17
2023-04-02T16:54:50.098Z,15.15
2023-04-02T16:57:20.035Z,15.08
2023-04-02T16:59:56.395Z,15.16
2023-04-02T17:02:40.174Z,15.12
2023-04-02T17:05:25.642Z,14.87
2023-04-02T17:08:01.958Z,14.51
2023-04-02T17:10:47.131Z,14.41
2023-04-02T17:13:19.392Z,14.30
2023-04-02T17:15:51.457Z,14.12
2023-04-02T17:18:20.259Z,13.80
2023-04-02T17:20:47.804Z,13.64
2023-04-02T17:23:15.856Z,13.49
2023-04-02T17:25:52.053Z,13.13
2023-04-02T17:28:25.637Z,12.30
2023-04-02T17:30:55.618Z,11.85
2023-04-02T17:33:25.339Z,11.78
2023-04-02T17:35:52.194Z,11.97
2023-04-02T17:38:20.052Z,12.06
2023-04-02T17:41:11.282Z,11.97
2023-04-02T17:43:47.561Z,11.97
2023-04-02T17:46:34.655Z,12.01
2023-04-02T17:49:13.904Z,12.28
2023-04-02T17:51:49.231Z,12.46
2023-04-02T17:54:22.276Z,12.54
2023-04-02T17:56:52.019Z,12.30
2023-04-02T17:59:32.979Z,11.97
2023-04-02T18:02:12.116Z,11.76
2023-04-02T18:04:49.443Z,11.65
2023-04-02T18:07:23.519Z,11.63
2023-04-02T18:10:02.465Z,11.67
2023-04-02T18:12:49.731Z,11.67
2023-04-02T18:15:28.875Z,11.61
2023-04-02T18:18:22.447Z,11.65
2023-04-02T18:20:58.699Z,11.68
2023-04-02T18:23:40.665Z,11.70
2023-04-02T18:26:10.349Z,11.75
2023-04-02T18:29:07.821Z,11.78
2023-04-02T18:31:37.256Z,11.84
2023-04-02T18:34:04.016Z,11.89
2023-04-02T18:36:51.256Z,11.86
2023-04-02T18:39:37.217Z,11.85
2023-04-02T18:42:16.784Z,11.83
2023-04-02T18:44:43.609Z,11.83
2023-04-02T18:47:10.628Z,11.85
2023-04-02T18:49:43.845Z,11.80
2023-04-02T18:52:14.792Z,11.75
2023-04-02T18:54:43.942Z,11.72
2023-04-02T18:57:16.385Z,11.75
2023-04-02T18:59:43.513Z,11.64
2023-04-02T19:02:25.449Z,11.58
2023-04-02T19:04:58.210Z,11.43
2023-04-02T19:07:27.977Z,11.33
2023-04-02T19:09:56.340Z,11.25
2023-04-02T19:12:23.929Z,11.19
2023-04-02T19:14:52.538Z,11.04
2023-04-02T19:17:19.605Z,11.02
2023-04-02T19:19:52.769Z,10.86
2023-04-02T19:22:25.664Z,10.75
2023-04-02T19:25:11.223Z,10.57
2023-04-02T19:28:00.873Z,10.38
2023-04-02T19:30:30.906Z,10.29
2023-04-02T19:33:07.587Z,10.22
2023-04-02T19:35:48.012Z,10.17
2023-04-02T19:38:20.652Z,10.13
2023-04-02T19:40:59.469Z,10.07
2023-04-02T19:43:26.555Z,10.02
2023-04-02T19:45:54.717Z,9.99
2023-04-02T19:48:23.516Z,10.00
2023-04-02T19:50:50.612Z,9.82
2023-04-02T19:53:17.659Z,9.76
2023-04-02T19:55:45.027Z,9.72
2023-04-02T19:58:24.249Z,9.66
2023-04-02T20:00:51.240Z,9.59
2023-04-02T20:03:18.145Z,9.57
2023-04-02T20:05:45.142Z,9.56
2023-04-02T20:08:12.072Z,9.56
2023-04-02T20:10:39.290Z,9.59
2023-04-02T20:13:06.211Z,9.56
2023-04-02T20:15:33.333Z,9.57
2023-04-02T20:18:00.160Z,9.53
2023-04-02T20:20:27.228Z,9.52
2023-04-02T20:22:54.109Z,9.52
2023-04-02T20:25:20.886Z,9.52
2023-04-02T20:27:47.646Z,9.50
2023-04-02T20:30:14.587Z,9.56
2023-04-02T20:32:41.550Z,9.51
2023-04-02T20:35:08.629Z,9.56
2023-04-02T20:37:35.966Z,9.50
2023-04-02T20:40:02.950Z,9.54
2023-04-02T20:42:29.771Z,9.64
2023-04-02T20:44:56.738Z,9.59
2023-04-02T20:47:23.518Z,9.63
2023-04-02T20:49:50.857Z,9.60
2023-04-02T20:52:17.670Z,9.63
2023-04-02T20:54:44.658Z,9.59
2023-04-02T20:57:11.633Z,9.54
2023-04-02T20:59:38.519Z,9.46
2023-04-02T21:02:05.630Z,9.44
2023-04-02T21:04:32.539Z,9.33
2023-04-02T21:06:59.487Z,9.29
2023-04-02T21:09:26.469Z,9.20
2023-04-02T21:11:53.351Z,9.09
2023-04-02T21:14:20.418Z,9.04
2023-04-02T21:16:47.304Z,8.91
2023-04-02T21:19:14.082Z,8.84
2023-04-02T21:21:41.353Z,8.77
2023-04-02T21:24:09.258Z,8.71
2023-04-02T21:26:37.970Z,8.68
2023-04-02T21:29:05.356Z,8.60
2023-04-02T21:31:37.095Z,8.54
2023-04-02T21:34:04.419Z,8.46
2023-04-02T21:36:32.651Z,8.43
2023-04-02T21:39:00.969Z,8.40
2023-04-02T21:41:29.321Z,8.33
2023-04-02T21:43:56.913Z,8.28
2023-04-02T21:46:25.049Z,8.28
2023-04-02T21:48:52.961Z,8.17
2023-04-02T21:51:22.008Z,8.10
2023-04-02T21:53:49.511Z,8.02
2023-04-02T21:56:19.768Z,7.97
2023-04-02T21:58:47.941Z,7.93
2023-04-02T22:01:26.686Z,7.86
2023-04-02T22:03:55.611Z,7.79
2023-04-02T22:06:23.708Z,7.76
2023-04-02T22:09:09.982Z,7.74
2023-04-02T22:12:13.762Z,7.66
2023-04-02T22:15:06.010Z,7.59
2023-04-02T22:20:23.643Z,7.52
2023-04-02T22:22:59.359Z,7.47
2023-04-02T22:25:30.392Z,7.39
2023-04-02T22:28:27.212Z,7.36
2023-04-02T22:30:55.876Z,7.38
2023-04-02T22:33:47.503Z,7.32
2023-04-02T22:36:35.295Z,7.26
2023-04-02T22:39:16.242Z,7.24
2023-04-02T22:44:27.549Z,7.13
2023-04-02T22:46:54.503Z,7.06
2023-04-02T22:49:21.452Z,7.00
2023-04-02T22:51:48.242Z,6.96
2023-04-02T22:54:15.200Z,6.98
2023-04-02T22:56:42.099Z,6.96
2023-04-02T22:59:09.146Z,6.90
2023-04-02T23:01:36.469Z,6.85
2023-04-02T23:04:05.418Z,6.79
2023-04-02T23:06:32.572Z,6.75
2023-04-02T23:08:59.397Z,6.68
2023-04-02T23:11:27.788Z,6.64
2023-04-02T23:13:55.623Z,6.62
2023-04-02T23:16:23.303Z,6.59
2023-04-02T23:18:50.492Z,6.53
2023-04-02T23:21:17.713Z,6.50
2023-04-02T23:23:44.692Z,6.46
2023-04-02T23:26:16.657Z,6.44
2023-04-02T23:28:44.108Z,6.36
2023-04-02T23:31:13.079Z,6.30
2023-04-02T23:33:40.182Z,6.34
2023-04-02T23:36:11.070Z,6.32
2023-04-02T23:38:38.034Z,6.30
2023-04-02T23:41:04.936Z,6.23
2023-04-02T23:43:32.107Z,6.22
2023-04-02T23:45:59.086Z,6.18
2023-04-02T23:48:26.202Z,6.18
2023-04-02T23:51:00.923Z,6.14
2023-04-02T23:53:30.441Z,6.10
2023-04-02T23:55:57.457Z,6.08
2023-04-02T23:58:24.328Z,6.09
